Terminal Aerodrome Forecast
Issued by NWS

Home | Current Version | Previous Version | Text Only | Print | Product List | Glossary On
Versions: 1 2 3 4 5 6 7 8 9 10 11 12 13 14 15 16
000
FTUS43 KSGF 061000 AAA
TAFJLN
TAF AMD
KJLN 061032Z 0611/0706 16012G18KT P6SM -SHRA BKN050 OVC100
      TEMPO 0614/0618 5SM TSRA OVC030CB
     FM061800 16015G22KT P6SM VCTS BKN050CB
     FM062300 15014KT P6SM BKN200=

USA.gov is the U.S. government's official web portal to all federal, state and local government web resources and services.